메인 페이지
METAR-TAF:

METAR-TAF

공항 :

Culiacán, 멕시코

위도: 24-49N, 경도: 107-24W, 고도: 39m

현재 날씨관측

예보는 1 시간 3분 전, 23:49시(UTC)에 발표되었습니다.
남서10kt
온도 31°C
습도 55%
기압 1008 hPa
시정: 12.9km
맑음

METAR: MMCL 142349Z 22010KT 8SM SKC 31/21 A2977 RMK SLP075 57009 953 ISOL CU SC

시각: 18:52 (00:52 UTC)

예보

예보는 7 시간 59분 전, 16:53시(UTC)에 발표되었습니다.
예보 대상 시간: 14일 18시부터 15일 18시까지 (UTC)
서남서12kt
시정: 10km
맑음
15일 0000시부터 (UTC)
서남서10kt
시정: 10km
맑음
15일 0600시부터 (UTC)
kt
시정: 10km
고도 2500ft 상공 구름 보통
15일 1200시부터 (UTC)
남남서5kt
시정: 10km
고도 1000ft 상공 구름 보통

TAF: MMCL 141653Z 1418/1518 24012KT P6SM SKC FM150000 24010KT P6SM SKC FM150600 00000KT P6SM SCT025 FM151200 20005KT P6SM SCT010

4,000개 이상의 공항 관측 자료 및 예보 (METAR 및 TAF 보고).

지도상에서 검색 가능한 기상관측소가 노란 점과 빨간 점으로 표시되어 있습니다.

기상관측소 명을 보려면 표시 위로 마우스를 이동하세요.

날씨 관측과 예보를 보려면 클릭하세요.

지도 변경 : 확대하려면 엑스 표시가 있는 녹색 버튼, 축소하려면 빼기 표시가 있는 녹색 버튼, 다음 페이지의 지도를 보려면 녹색 화살표를 클릭하세요.


METAR-TAF: